Time;durP1;ratioP1;P1;durP2;ratioP2;P2;SDS_P1;SDS_P2;PMS_P1;PMS_P2;Temp;Humidity;BMP_temperature;BMP_pressure;BME280_temperature;BME280_humidity;BME280_pressure;Samples;Min_cycle;Max_cycle;Signal;HPM_P1;HPM_P2
2023/05/31 00:02:12;;;;;;;12.00;8.40;;;;;;;;;;5007002;28;20409;-46
2023/05/31 00:04:38;;;;;;;12.83;8.97;;;;;;;;;;5015394;28;20500;-44
2023/05/31 00:07:05;;;;;;;11.10;8.27;;;;;;;;;;5015249;28;20432;-44
2023/05/31 00:09:31;;;;;;;13.37;8.63;;;;;;;;;;5015423;28;20381;-44
2023/05/31 00:11:57;;;;;;;12.00;7.50;;;;;;;;;;5015278;28;20411;-44
2023/05/31 00:14:23;;;;;;;12.63;8.97;;;;;;;;;;5012950;28;20568;-44
2023/05/31 00:16:49;;;;;;;11.63;8.30;;;;;;;;;;5015266;28;20513;-45
2023/05/31 00:19:15;;;;;;;12.33;8.50;;;;;;;;;;5015148;28;20419;-44
2023/05/31 00:21:41;;;;;;;11.20;8.60;;;;;;;;;;5015203;28;20769;-46
2023/05/31 00:24:07;;;;;;;12.40;8.03;;;;;;;;;;5014781;28;20442;-45
2023/05/31 00:26:34;;;;;;;13.70;9.87;;;;;;;;;;5014842;28;20830;-45
2023/05/31 00:29:00;;;;;;;11.87;9.00;;;;;;;;;;5013915;28;20403;-47
2023/05/31 00:31:26;;;;;;;12.00;9.07;;;;;;;;;;5015147;28;20910;-45
2023/05/31 00:33:52;;;;;;;10.27;8.20;;;;;;;;;;5007271;28;20451;-45
2023/05/31 00:36:18;;;;;;;19.87;10.03;;;;;;;;;;5008001;28;20465;-45
2023/05/31 00:38:44;;;;;;;13.10;9.00;;;;;;;;;;5015069;28;20419;-45
2023/05/31 00:41:10;;;;;;;15.50;9.23;;;;;;;;;;5014392;28;20422;-45
2023/05/31 00:43:36;;;;;;;17.13;8.70;;;;;;;;;;5013612;28;20532;-45
2023/05/31 00:46:02;;;;;;;10.10;8.50;;;;;;;;;;5013929;28;20420;-45
2023/05/31 00:48:29;;;;;;;10.60;8.27;;;;;;;;;;5014214;28;20416;-45
2023/05/31 00:50:55;;;;;;;15.50;9.20;;;;;;;;;;5014922;28;20972;-44
2023/05/31 00:53:22;;;;;;;11.23;8.47;;;;;;;;;;5019089;28;20525;-44
2023/05/31 00:55:49;;;;;;;13.27;8.90;;;;;;;;;;5014004;28;20503;-45
2023/05/31 00:58:16;;;;;;;10.53;8.53;;;;;;;;;;5013798;28;20414;-45
2023/05/31 01:00:42;;;;;;;12.50;9.10;;;;;;;;;;5011976;28;20434;-46
2023/05/31 01:03:09;;;;;;;11.43;8.30;;;;;;;;;;5011969;28;20869;-45
2023/05/31 01:05:35;;;;;;;12.90;9.13;;;;;;;;;;5013382;28;20407;-45
2023/05/31 01:08:02;;;;;;;14.17;9.03;;;;;;;;;;5012780;28;20414;-45
2023/05/31 01:10:30;;;;;;;13.57;9.67;;;;;;;;;;5013753;28;20402;-45
2023/05/31 01:13:08;;;;;;;14.23;8.60;;;;;;;;;;5013332;28;20763;-45
2023/05/31 01:15:57;;;;;;;11.67;8.50;;;;;;;;;;5013551;28;20496;-45
2023/05/31 01:18:26;;;;;;;13.87;9.00;;;;;;;;;;5004266;28;20450;-46
2023/05/31 01:20:54;;;;;;;11.70;9.10;;;;;;;;;;5013521;28;20511;-45
2023/05/31 01:23:39;;;;;;;11.70;8.80;;;;;;;;;;5013276;28;20436;-45
2023/05/31 01:26:13;;;;;;;13.80;9.67;;;;;;;;;;5013813;28;20479;-44
2023/05/31 01:28:41;;;;;;;13.90;9.93;;;;;;;;;;5017194;28;20424;-45
2023/05/31 01:31:08;;;;;;;15.07;9.90;;;;;;;;;;5012181;28;20435;-45
2023/05/31 01:33:35;;;;;;;14.23;9.30;;;;;;;;;;5012978;28;21005;-45
2023/05/31 01:36:01;;;;;;;15.83;10.70;;;;;;;;;;5013184;28;20459;-44
2023/05/31 01:38:27;;;;;;;15.77;10.77;;;;;;;;;;5013210;28;20417;-45
2023/05/31 01:40:55;;;;;;;14.20;10.50;;;;;;;;;;5012986;28;20413;-45
2023/05/31 01:43:21;;;;;;;14.30;10.70;;;;;;;;;;5012830;28;20464;-45
2023/05/31 01:45:47;;;;;;;19.43;11.20;;;;;;;;;;5012942;28;20431;-45
2023/05/31 01:48:14;;;;;;;15.43;9.93;;;;;;;;;;5013057;28;20413;-45
2023/05/31 01:50:40;;;;;;;18.53;11.10;;;;;;;;;;5013175;28;20460;-44
2023/05/31 01:53:06;;;;;;;17.63;11.97;;;;;;;;;;5012661;28;20437;-45
2023/05/31 01:55:33;;;;;;;15.47;11.67;;;;;;;;;;5017767;28;20466;-45
2023/05/31 01:58:00;;;;;;;12.43;10.63;;;;;;;;;;5014442;28;20416;-45
2023/05/31 02:00:26;;;;;;;13.03;9.73;;;;;;;;;;5012986;28;20416;-45
2023/05/31 02:02:52;;;;;;;17.23;12.03;;;;;;;;;;5010214;28;20945;-45
2023/05/31 02:05:18;;;;;;;14.00;11.07;;;;;;;;;;5012844;28;20897;-45
2023/05/31 02:07:48;;;;;;;14.53;11.47;;;;;;;;;;5012678;28;20421;-45
2023/05/31 02:10:14;;;;;;;15.20;11.07;;;;;;;;;;5005091;28;20487;-45
2023/05/31 02:12:40;;;;;;;18.43;12.13;;;;;;;;;;5012391;28;20494;-46
2023/05/31 02:15:13;;;;;;;16.57;11.20;;;;;;;;;;5012128;28;20880;-45
2023/05/31 02:17:51;;;;;;;14.17;10.10;;;;;;;;;;5011155;28;20924;-44
2023/05/31 02:20:17;;;;;;;18.77;12.10;;;;;;;;;;5008036;28;20407;-45
2023/05/31 02:22:44;;;;;;;15.23;10.63;;;;;;;;;;5012110;28;20377;-45
2023/05/31 02:25:11;;;;;;;17.87;12.80;;;;;;;;;;5012404;28;20424;-45
2023/05/31 02:27:37;;;;;;;14.67;11.70;;;;;;;;;;5014833;28;20917;-44
2023/05/31 02:30:06;;;;;;;16.37;11.83;;;;;;;;;;5013150;28;20939;-45
2023/05/31 02:32:37;;;;;;;17.57;12.30;;;;;;;;;;5010181;28;20438;-45
2023/05/31 02:35:06;;;;;;;14.63;11.30;;;;;;;;;;5011927;28;20494;-45
2023/05/31 02:37:32;;;;;;;17.23;11.23;;;;;;;;;;5012058;28;20466;-46
2023/05/31 02:39:58;;;;;;;14.97;10.90;;;;;;;;;;5012160;28;20878;-45
2023/05/31 02:42:25;;;;;;;20.47;11.30;;;;;;;;;;5012027;28;20971;-45
2023/05/31 02:44:51;;;;;;;14.13;11.03;;;;;;;;;;5011947;28;20444;-45
2023/05/31 02:47:17;;;;;;;15.37;11.60;;;;;;;;;;5012080;28;20776;-45
2023/05/31 02:49:43;;;;;;;14.10;10.73;;;;;;;;;;5011991;28;20472;-45
2023/05/31 02:52:09;;;;;;;18.07;11.03;;;;;;;;;;5011783;28;20416;-45
2023/05/31 02:54:35;;;;;;;15.50;11.20;;;;;;;;;;5011798;28;20428;-45
2023/05/31 02:57:01;;;;;;;16.20;11.67;;;;;;;;;;5012027;28;20469;-45
2023/05/31 02:59:27;;;;;;;14.67;11.30;;;;;;;;;;5011842;28;20388;-45
2023/05/31 03:01:52;;;;;;;16.13;11.33;;;;;;;;;;5010926;28;20430;-45
2023/05/31 03:04:18;;;;;;;13.57;10.87;;;;;;;;;;5010852;28;20449;-45
2023/05/31 03:06:45;;;;;;;15.80;11.43;;;;;;;;;;5011804;28;20416;-45
2023/05/31 03:09:16;;;;;;;14.43;10.80;;;;;;;;;;5003955;28;20440;-45
2023/05/31 03:11:42;;;;;;;15.23;11.40;;;;;;;;;;5011972;28;20404;-45
2023/05/31 03:14:08;;;;;;;14.70;11.03;;;;;;;;;;5011473;28;20423;-44
2023/05/31 03:16:34;;;;;;;21.10;12.03;;;;;;;;;;5012127;28;21038;-45
2023/05/31 03:19:00;;;;;;;13.80;9.63;;;;;;;;;;5012165;28;20416;-47
2023/05/31 03:21:26;;;;;;;14.97;10.77;;;;;;;;;;5012681;28;20465;-46
2023/05/31 03:23:52;;;;;;;23.43;12.50;;;;;;;;;;5012385;28;20666;-46
2023/05/31 03:26:18;;;;;;;17.30;11.63;;;;;;;;;;5014033;28;20419;-45
2023/05/31 03:28:44;;;;;;;15.27;11.97;;;;;;;;;;5019562;28;20417;-46
2023/05/31 03:31:10;;;;;;;17.40;12.37;;;;;;;;;;5015270;28;20440;-45
2023/05/31 03:33:36;;;;;;;18.03;10.90;;;;;;;;;;5015758;28;20873;-46
2023/05/31 03:36:03;;;;;;;14.43;10.43;;;;;;;;;;5016205;28;20460;-45
2023/05/31 03:38:29;;;;;;;13.10;11.27;;;;;;;;;;5016083;28;20966;-45
2023/05/31 03:40:55;;;;;;;18.33;11.77;;;;;;;;;;5016268;28;20467;-46
2023/05/31 03:43:21;;;;;;;15.77;10.73;;;;;;;;;;5016190;28;20517;-45
2023/05/31 03:45:47;;;;;;;15.07;11.40;;;;;;;;;;5016176;28;20440;-46
2023/05/31 03:48:13;;;;;;;16.20;11.70;;;;;;;;;;5015724;28;20521;-45
2023/05/31 03:50:40;;;;;;;16.00;11.80;;;;;;;;;;5015947;28;20920;-46
2023/05/31 03:53:06;;;;;;;20.90;11.23;;;;;;;;;;5016034;28;20486;-45
2023/05/31 03:55:32;;;;;;;16.20;11.93;;;;;;;;;;5021224;28;20581;-45
2023/05/31 03:57:59;;;;;;;17.30;11.73;;;;;;;;;;5017533;28;20415;-44
2023/05/31 04:00:25;;;;;;;13.87;10.70;;;;;;;;;;5020172;28;20513;-45
2023/05/31 04:02:51;;;;;;;15.30;10.20;;;;;;;;;;5015013;28;20816;-44
2023/05/31 04:05:17;;;;;;;15.60;11.37;;;;;;;;;;5015760;28;20417;-45
2023/05/31 04:07:43;;;;;;;17.80;12.13;;;;;;;;;;5015818;28;20946;-46
2023/05/31 04:10:09;;;;;;;16.50;12.27;;;;;;;;;;5016080;28;20403;-47
2023/05/31 04:12:35;;;;;;;15.70;12.10;;;;;;;;;;5015458;28;20470;-46
2023/05/31 04:15:01;;;;;;;15.00;10.83;;;;;;;;;;5015788;28;20462;-45
2023/05/31 04:17:27;;;;;;;14.00;11.13;;;;;;;;;;5015721;28;20413;-46
2023/05/31 04:19:53;;;;;;;15.03;11.30;;;;;;;;;;5015702;28;20428;-46
2023/05/31 04:22:20;;;;;;;15.27;11.00;;;;;;;;;;5015561;28;20546;-46
2023/05/31 04:24:46;;;;;;;14.53;10.90;;;;;;;;;;5015816;28;20456;-45
2023/05/31 04:27:18;;;;;;;17.30;12.00;;;;;;;;;;5015360;28;20407;-46
2023/05/31 04:29:45;;;;;;;15.70;11.97;;;;;;;;;;5018645;28;20488;-46
2023/05/31 04:32:14;;;;;;;16.00;11.77;;;;;;;;;;5013872;28;20430;-45
2023/05/31 04:34:40;;;;;;;14.87;11.00;;;;;;;;;;5013629;28;20441;-46
2023/05/31 04:37:07;;;;;;;14.70;11.03;;;;;;;;;;5014399;28;20904;-45
2023/05/31 04:39:34;;;;;;;15.77;11.40;;;;;;;;;;5014972;28;20464;-45
2023/05/31 04:42:00;;;;;;;15.67;11.00;;;;;;;;;;5015208;28;20447;-46
2023/05/31 04:44:26;;;;;;;15.20;11.90;;;;;;;;;;5014882;28;20437;-45
2023/05/31 04:46:52;;;;;;;15.57;12.57;;;;;;;;;;5015237;28;20427;-44
2023/05/31 04:49:18;;;;;;;18.77;11.33;;;;;;;;;;5015204;28;20433;-45
2023/05/31 04:51:44;;;;;;;17.13;12.97;;;;;;;;;;5015037;28;20440;-45
2023/05/31 04:54:10;;;;;;;15.23;11.43;;;;;;;;;;5015125;28;20411;-45
2023/05/31 04:56:36;;;;;;;17.10;11.67;;;;;;;;;;5018070;28;20466;-46
2023/05/31 04:59:03;;;;;;;16.07;11.63;;;;;;;;;;5014981;28;20413;-46
2023/05/31 05:01:29;;;;;;;15.93;10.83;;;;;;;;;;5013708;28;20433;-45
2023/05/31 05:03:55;;;;;;;15.20;11.03;;;;;;;;;;5014488;28;20864;-45
2023/05/31 05:06:22;;;;;;;17.33;11.87;;;;;;;;;;5014224;28;20484;-45
2023/05/31 05:08:48;;;;;;;17.37;10.20;;;;;;;;;;5010200;28;20435;-45
2023/05/31 05:11:14;;;;;;;13.33;10.90;;;;;;;;;;5018208;28;20423;-45
2023/05/31 05:13:40;;;;;;;14.33;10.77;;;;;;;;;;5016829;28;20434;-44
2023/05/31 05:16:06;;;;;;;14.70;11.00;;;;;;;;;;5015331;28;20498;-45
2023/05/31 05:18:32;;;;;;;19.00;11.50;;;;;;;;;;5014327;28;20408;-45
2023/05/31 05:20:58;;;;;;;15.97;11.43;;;;;;;;;;5014482;28;20449;-46
2023/05/31 05:23:24;;;;;;;19.67;10.80;;;;;;;;;;5014067;28;20429;-45
2023/05/31 05:25:51;;;;;;;15.83;12.07;;;;;;;;;;5016241;28;20514;-44
2023/05/31 05:28:17;;;;;;;13.23;10.23;;;;;;;;;;5014332;28;20426;-45
2023/05/31 05:30:44;;;;;;;13.07;11.03;;;;;;;;;;5014615;28;20801;-47
2023/05/31 05:33:10;;;;;;;17.77;11.43;;;;;;;;;;5012438;28;20460;-44
2023/05/31 05:35:36;;;;;;;19.10;12.30;;;;;;;;;;5013291;28;20803;-45
2023/05/31 05:38:02;;;;;;;17.87;12.43;;;;;;;;;;5014102;28;20426;-45
2023/05/31 05:40:28;;;;;;;13.23;10.93;;;;;;;;;;5013195;28;20430;-46
2023/05/31 05:42:54;;;;;;;15.10;11.43;;;;;;;;;;5013975;28;20409;-45
2023/05/31 05:45:20;;;;;;;13.83;11.67;;;;;;;;;;5014298;28;20499;-47
2023/05/31 05:47:48;;;;;;;16.33;10.83;;;;;;;;;;5014268;28;20739;-45
2023/05/31 05:50:15;;;;;;;14.30;10.10;;;;;;;;;;5013627;28;20433;-45
2023/05/31 05:52:41;;;;;;;16.00;11.77;;;;;;;;;;5013935;28;20419;-46
2023/05/31 05:55:07;;;;;;;16.27;10.10;;;;;;;;;;5013995;28;20433;-45
2023/05/31 05:57:33;;;;;;;21.63;10.93;;;;;;;;;;5013953;28;20397;-45
2023/05/31 05:59:59;;;;;;;14.67;11.07;;;;;;;;;;5013662;28;20378;-45
2023/05/31 06:02:25;;;;;;;15.93;10.20;;;;;;;;;;5012191;28;20411;-45
2023/05/31 06:04:51;;;;;;;18.83;9.07;;;;;;;;;;5013171;28;20425;-45
2023/05/31 06:07:19;;;;;;;16.17;10.80;;;;;;;;;;5013622;28;20415;-45
2023/05/31 06:09:45;;;;;;;13.50;9.60;;;;;;;;;;5008779;28;20386;-46
2023/05/31 06:12:12;;;;;;;14.07;11.20;;;;;;;;;;5013290;28;20751;-44
2023/05/31 06:14:38;;;;;;;15.63;9.33;;;;;;;;;;5012551;28;20442;-45
2023/05/31 06:17:04;;;;;;;13.40;9.93;;;;;;;;;;5013985;28;20842;-45
2023/05/31 06:19:30;;;;;;;11.37;9.37;;;;;;;;;;5012378;28;20742;-45
2023/05/31 06:21:57;;;;;;;14.90;9.10;;;;;;;;;;5012225;28;20386;-46
2023/05/31 06:24:23;;;;;;;12.40;8.63;;;;;;;;;;5013353;28;20443;-45
2023/05/31 06:26:49;;;;;;;18.30;9.70;;;;;;;;;;5013411;28;20429;-45
2023/05/31 06:29:15;;;;;;;14.73;10.77;;;;;;;;;;5013562;28;20412;-44
2023/05/31 06:31:42;;;;;;;12.23;8.93;;;;;;;;;;5013941;28;20427;-44
2023/05/31 06:34:09;;;;;;;13.00;8.37;;;;;;;;;;5010055;28;20528;-44
2023/05/31 06:36:35;;;;;;;11.70;9.30;;;;;;;;;;5010551;28;20467;-44
2023/05/31 06:39:01;;;;;;;10.53;8.63;;;;;;;;;;5012361;28;20931;-44
2023/05/31 06:41:29;;;;;;;19.13;9.57;;;;;;;;;;5012371;28;20472;-43
2023/05/31 06:43:55;;;;;;;11.30;8.10;;;;;;;;;;5012080;28;20432;-44
2023/05/31 06:46:21;;;;;;;14.60;7.97;;;;;;;;;;5012349;28;20430;-45
2023/05/31 06:48:47;;;;;;;12.90;8.40;;;;;;;;;;5012161;28;20445;-45
2023/05/31 06:51:12;;;;;;;10.93;8.57;;;;;;;;;;5012304;28;20931;-44
2023/05/31 06:53:38;;;;;;;15.57;8.77;;;;;;;;;;5011933;28;21059;-43
2023/05/31 06:56:05;;;;;;;10.63;7.73;;;;;;;;;;5018606;28;20822;-43
2023/05/31 06:58:31;;;;;;;12.77;7.70;;;;;;;;;;5012195;28;20494;-44
2023/05/31 07:00:57;;;;;;;12.40;8.17;;;;;;;;;;5012538;28;20514;-45
2023/05/31 07:03:23;;;;;;;10.47;8.77;;;;;;;;;;5010751;28;20406;-44
2023/05/31 07:05:49;;;;;;;10.70;8.67;;;;;;;;;;5007351;28;20948;-44
2023/05/31 07:08:15;;;;;;;12.57;8.27;;;;;;;;;;5005818;28;20404;-44
2023/05/31 07:10:41;;;;;;;12.60;8.80;;;;;;;;;;5012255;28;20950;-44
2023/05/31 07:13:07;;;;;;;9.13;7.73;;;;;;;;;;5018286;28;20463;-43
2023/05/31 07:15:34;;;;;;;9.33;7.30;;;;;;;;;;5011797;28;20440;-43
2023/05/31 07:18:00;;;;;;;15.43;8.13;;;;;;;;;;5011997;28;20414;-43
2023/05/31 07:20:26;;;;;;;12.07;7.80;;;;;;;;;;5012341;28;20422;-44
2023/05/31 07:22:52;;;;;;;13.40;8.20;;;;;;;;;;5011678;28;20442;-44
2023/05/31 07:25:18;;;;;;;13.37;9.20;;;;;;;;;;5017063;28;20411;-44
2023/05/31 07:27:44;;;;;;;9.93;6.87;;;;;;;;;;5012203;28;20512;-44
2023/05/31 07:30:10;;;;;;;9.47;6.63;;;;;;;;;;5012312;28;20477;-43
2023/05/31 07:32:36;;;;;;;15.10;9.97;;;;;;;;;;5010184;28;20477;-43
2023/05/31 07:35:03;;;;;;;6.90;6.20;;;;;;;;;;5010623;28;20863;-44
2023/05/31 07:37:29;;;;;;;9.40;7.90;;;;;;;;;;5012042;28;20912;-44
2023/05/31 07:39:55;;;;;;;7.53;6.63;;;;;;;;;;5012169;28;20442;-44
2023/05/31 07:42:21;;;;;;;11.60;7.23;;;;;;;;;;5012417;28;20400;-43
2023/05/31 07:44:48;;;;;;;7.23;6.27;;;;;;;;;;5012071;28;20455;-43
2023/05/31 07:47:15;;;;;;;16.70;7.57;;;;;;;;;;5011953;28;20430;-44
2023/05/31 07:49:41;;;;;;;9.20;6.73;;;;;;;;;;5012220;28;20404;-44
2023/05/31 07:52:07;;;;;;;13.40;7.73;;;;;;;;;;5011969;28;20435;-44
2023/05/31 07:54:33;;;;;;;10.03;6.47;;;;;;;;;;5012044;28;20439;-44
2023/05/31 07:56:59;;;;;;;8.67;7.13;;;;;;;;;;5018582;28;20966;-43
2023/05/31 07:59:25;;;;;;;12.00;5.90;;;;;;;;;;5010967;28;20405;-45
2023/05/31 08:01:51;;;;;;;14.10;6.67;;;;;;;;;;5011823;28;20421;-43
2023/05/31 08:04:17;;;;;;;9.40;6.17;;;;;;;;;;5010776;28;20468;-45
2023/05/31 08:06:43;;;;;;;14.27;6.50;;;;;;;;;;5011847;28;20520;-44
2023/05/31 08:09:09;;;;;;;9.37;6.07;;;;;;;;;;5011746;28;20486;-43
2023/05/31 08:11:36;;;;;;;16.33;6.00;;;;;;;;;;5010960;28;20930;-46
2023/05/31 08:14:03;;;;;;;8.53;5.70;;;;;;;;;;5013251;28;20450;-44
2023/05/31 08:16:29;;;;;;;8.90;5.70;;;;;;;;;;5014864;28;20469;-44
2023/05/31 08:18:55;;;;;;;5.97;5.07;;;;;;;;;;5014860;28;20477;-45
2023/05/31 08:21:21;;;;;;;8.90;6.07;;;;;;;;;;5014757;28;20443;-45
2023/05/31 08:23:47;;;;;;;5.57;4.97;;;;;;;;;;5014841;28;20463;-43
2023/05/31 08:26:13;;;;;;;11.03;5.57;;;;;;;;;;5014776;28;20929;-43
2023/05/31 08:28:39;;;;;;;9.40;5.20;;;;;;;;;;5013479;28;20497;-45
2023/05/31 08:31:05;;;;;;;8.23;5.53;;;;;;;;;;5014596;28;20407;-44
2023/05/31 08:33:31;;;;;;;8.93;5.73;;;;;;;;;;5014355;28;20427;-44
2023/05/31 08:36:01;;;;;;;9.90;5.63;;;;;;;;;;5014388;28;20490;-44
2023/05/31 08:38:29;;;;;;;7.87;4.93;;;;;;;;;;5014589;28;20411;-44
2023/05/31 08:40:57;;;;;;;10.70;4.80;;;;;;;;;;5014566;28;20768;-44
2023/05/31 08:43:25;;;;;;;8.23;5.57;;;;;;;;;;5014171;28;20438;-44
2023/05/31 08:45:52;;;;;;;9.20;4.80;;;;;;;;;;5014186;28;20442;-44
2023/05/31 08:48:21;;;;;;;6.93;5.60;;;;;;;;;;5014035;28;20867;-44
2023/05/31 08:50:47;;;;;;;8.23;5.03;;;;;;;;;;5014164;28;20411;-44
2023/05/31 08:53:15;;;;;;;7.00;4.00;;;;;;;;;;5014006;28;20427;-44
2023/05/31 08:55:42;;;;;;;7.70;4.60;;;;;;;;;;5014649;28;20458;-44
2023/05/31 08:58:10;;;;;;;9.67;6.10;;;;;;;;;;5013062;28;20415;-44
2023/05/31 09:00:36;;;;;;;7.60;4.53;;;;;;;;;;5013910;28;20411;-44
2023/05/31 09:03:04;;;;;;;7.80;4.17;;;;;;;;;;5013459;28;20510;-45
2023/05/31 09:05:30;;;;;;;12.00;4.30;;;;;;;;;;5014109;28;20477;-45
2023/05/31 09:07:57;;;;;;;11.47;4.70;;;;;;;;;;5012950;28;20914;-44
2023/05/31 09:10:23;;;;;;;12.70;4.77;;;;;;;;;;5012710;28;20407;-45
2023/05/31 09:12:49;;;;;;;6.80;4.17;;;;;;;;;;5012491;28;20430;-44
2023/05/31 09:15:15;;;;;;;14.33;6.97;;;;;;;;;;5013527;28;20501;-44
2023/05/31 09:17:44;;;;;;;7.63;4.47;;;;;;;;;;5013545;28;20411;-44
2023/05/31 09:20:11;;;;;;;10.50;7.30;;;;;;;;;;5012605;28;20435;-45
2023/05/31 09:22:37;;;;;;;9.13;4.37;;;;;;;;;;5013507;28;20418;-45
2023/05/31 09:25:03;;;;;;;14.23;4.57;;;;;;;;;;5010597;28;20430;-44
2023/05/31 09:27:35;;;;;;;9.03;5.30;;;;;;;;;;5011983;28;20457;-44
2023/05/31 09:30:04;;;;;;;8.83;3.77;;;;;;;;;;5013361;28;20403;-45
2023/05/31 09:32:30;;;;;;;12.53;4.00;;;;;;;;;;5013141;28;20399;-45
2023/05/31 09:35:10;;;;;;;7.50;3.57;;;;;;;;;;5013515;28;20494;-45
2023/05/31 09:37:42;;;;;;;4.33;3.57;;;;;;;;;;5013304;28;20411;-44
2023/05/31 09:40:08;;;;;;;10.47;3.93;;;;;;;;;;5012824;28;20424;-44
2023/05/31 09:42:34;;;;;;;3.70;3.30;;;;;;;;;;5012752;28;20446;-44
2023/05/31 09:45:00;;;;;;;4.43;3.43;;;;;;;;;;5012897;28;20451;-45
2023/05/31 09:47:26;;;;;;;8.57;4.20;;;;;;;;;;5013874;28;20411;-45
2023/05/31 09:49:55;;;;;;;29.37;21.50;;;;;;;;;;5010078;28;20439;-44
2023/05/31 09:52:27;;;;;;;7.77;3.90;;;;;;;;;;5005449;28;20423;-44
2023/05/31 09:54:53;;;;;;;9.10;5.13;;;;;;;;;;5011844;28;20951;-46
2023/05/31 09:57:29;;;;;;;9.93;3.80;;;;;;;;;;5013396;28;20773;-44
2023/05/31 10:00:04;;;;;;;8.63;3.73;;;;;;;;;;5010933;28;20426;-44
2023/05/31 10:02:30;;;;;;;4.83;3.17;;;;;;;;;;5012349;28;20417;-45
2023/05/31 10:04:56;;;;;;;4.00;3.10;;;;;;;;;;5012360;28;20411;-44
2023/05/31 10:07:23;;;;;;;5.33;2.87;;;;;;;;;;5012706;28;20783;-44
2023/05/31 10:09:49;;;;;;;8.40;3.40;;;;;;;;;;5012025;28;20888;-45
2023/05/31 10:12:17;;;;;;;6.10;2.83;;;;;;;;;;5005577;28;20465;-44
2023/05/31 10:14:46;;;;;;;3.07;2.50;;;;;;;;;;5012426;28;20498;-45
2023/05/31 10:17:14;;;;;;;7.37;2.60;;;;;;;;;;5004498;28;20466;-44
2023/05/31 10:19:42;;;;;;;3.80;2.50;;;;;;;;;;5009426;28;20419;-44
2023/05/31 10:22:08;;;;;;;4.80;3.00;;;;;;;;;;5006200;28;20455;-44
2023/05/31 10:24:41;;;;;;;3.67;2.67;;;;;;;;;;5006176;28;20446;-44
2023/05/31 10:27:12;;;;;;;3.87;2.93;;;;;;;;;;5009035;28;20407;-44
2023/05/31 10:29:48;;;;;;;8.97;2.57;;;;;;;;;;5012179;28;20948;-43
2023/05/31 10:32:18;;;;;;;2.97;2.20;;;;;;;;;;5001417;28;20495;-42
2023/05/31 10:34:44;;;;;;;9.03;2.60;;;;;;;;;;5008677;28;20447;-42
2023/05/31 10:37:10;;;;;;;3.00;2.23;;;;;;;;;;5010161;28;20492;-42
2023/05/31 10:39:39;;;;;;;9.03;2.90;;;;;;;;;;5010003;28;20399;-42
2023/05/31 10:42:26;;;;;;;5.30;2.40;;;;;;;;;;5007849;28;20411;-42
2023/05/31 10:45:04;;;;;;;5.83;2.80;;;;;;;;;;5004576;28;20935;-42
2023/05/31 10:47:36;;;;;;;3.40;2.50;;;;;;;;;;5002563;28;20416;-43
2023/05/31 10:50:03;;;;;;;7.07;3.07;;;;;;;;;;5005077;28;20411;-42
2023/05/31 10:52:33;;;;;;;4.07;2.27;;;;;;;;;;5007687;28;20438;-42
2023/05/31 10:55:18;;;;;;;3.00;2.63;;;;;;;;;;5009657;28;20434;-43
2023/05/31 10:57:51;;;;;;;5.70;2.50;;;;;;;;;;5012171;28;20419;-44
2023/05/31 11:00:21;;;;;;;4.50;2.10;;;;;;;;;;5011110;28;20415;-42
2023/05/31 11:02:49;;;;;;;3.50;2.73;;;;;;;;;;5010566;28;20422;-42
2023/05/31 11:05:26;;;;;;;2.97;2.17;;;;;;;;;;5011672;28;20443;-42
2023/05/31 11:07:52;;;;;;;2.90;2.27;;;;;;;;;;5011624;28;20493;-42
2023/05/31 11:10:28;;;;;;;2.90;2.60;;;;;;;;;;5011106;28;20410;-43
2023/05/31 11:12:56;;;;;;;2.70;2.50;;;;;;;;;;5011678;28;20431;-43
2023/05/31 11:15:22;;;;;;;2.57;2.37;;;;;;;;;;5011572;28;20505;-42
2023/05/31 11:17:52;;;;;;;3.83;2.43;;;;;;;;;;5010590;28;20427;-42
2023/05/31 11:20:19;;;;;;;2.00;1.80;;;;;;;;;;5011731;28;20423;-43
2023/05/31 11:22:45;;;;;;;4.10;2.50;;;;;;;;;;5011682;28;20407;-46
2023/05/31 11:25:22;;;;;;;3.73;2.53;;;;;;;;;;5011840;28;20418;-42
2023/05/31 11:27:49;;;;;;;6.27;2.37;;;;;;;;;;5009111;28;20415;-42
2023/05/31 11:30:15;;;;;;;4.10;2.57;;;;;;;;;;5011725;28;20907;-44
2023/05/31 11:32:42;;;;;;;5.20;2.00;;;;;;;;;;5010376;28;20792;-42
2023/05/31 11:35:14;;;;;;;4.33;2.30;;;;;;;;;;5011469;28;20441;-42
2023/05/31 11:37:41;;;;;;;2.23;2.07;;;;;;;;;;5011766;28;20418;-42
2023/05/31 11:40:07;;;;;;;2.60;1.80;;;;;;;;;;5011678;28;20494;-42
2023/05/31 11:42:34;;;;;;;2.60;1.90;;;;;;;;;;5011299;28;21126;-42
2023/05/31 11:45:04;;;;;;;2.57;2.10;;;;;;;;;;5011586;28;20498;-42
2023/05/31 11:47:34;;;;;;;3.20;1.87;;;;;;;;;;5010800;28;20427;-45
2023/05/31 11:50:01;;;;;;;2.03;1.83;;;;;;;;;;5007935;28;20423;-43
2023/05/31 11:52:27;;;;;;;4.50;2.53;;;;;;;;;;5015126;28;20394;-42
2023/05/31 11:54:54;;;;;;;3.60;2.03;;;;;;;;;;5014848;28;20497;-41
2023/05/31 11:57:22;;;;;;;3.37;2.00;;;;;;;;;;5010864;28;20411;-41
2023/05/31 11:59:48;;;;;;;4.07;2.30;;;;;;;;;;5014775;28;20410;-41
2023/05/31 12:02:14;;;;;;;2.00;1.80;;;;;;;;;;5013765;28;20414;-41
2023/05/31 12:04:41;;;;;;;2.83;2.10;;;;;;;;;;5015095;28;20565;-41
2023/05/31 12:07:20;;;;;;;4.07;1.73;;;;;;;;;;5015050;28;20418;-41
2023/05/31 12:09:46;;;;;;;5.10;2.20;;;;;;;;;;5015047;28;20478;-41
2023/05/31 12:12:12;;;;;;;8.70;2.77;;;;;;;;;;5014809;28;20410;-44
2023/05/31 12:14:38;;;;;;;4.03;2.20;;;;;;;;;;5014626;28;20435;-42
2023/05/31 12:17:05;;;;;;;5.03;2.50;;;;;;;;;;5014663;28;20834;-40
2023/05/31 12:19:34;;;;;;;3.60;2.10;;;;;;;;;;5013029;28;20431;-41
2023/05/31 12:22:02;;;;;;;3.27;2.10;;;;;;;;;;5014592;28;20418;-41
2023/05/31 12:24:27;;;;;;;2.90;2.30;;;;;;;;;;5014455;28;20957;-41
2023/05/31 12:26:54;;;;;;;5.67;2.50;;;;;;;;;;5014385;28;20415;-42
2023/05/31 12:29:26;;;;;;;7.40;2.20;;;;;;;;;;5014638;28;20438;-41
2023/05/31 12:32:00;;;;;;;3.43;2.30;;;;;;;;;;5015406;28;20406;-43
2023/05/31 12:34:28;;;;;;;3.77;2.13;;;;;;;;;;5008428;28;20477;-44
2023/05/31 12:36:54;;;;;;;3.73;2.00;;;;;;;;;;5014321;28;20880;-43
2023/05/31 12:39:20;;;;;;;6.20;2.30;;;;;;;;;;5014512;28;20502;-43
2023/05/31 12:41:47;;;;;;;3.50;2.10;;;;;;;;;;5014346;28;20644;-45
2023/05/31 12:44:18;;;;;;;2.50;1.90;;;;;;;;;;5014298;28;20200;-44
2023/05/31 12:46:45;;;;;;;4.33;2.10;;;;;;;;;;5014234;28;20422;-44
2023/05/31 12:49:15;;;;;;;6.73;2.40;;;;;;;;;;5006263;28;20427;-44
2023/05/31 12:51:42;;;;;;;4.63;2.27;;;;;;;;;;5014244;28;20407;-46
2023/05/31 12:54:12;;;;;;;4.00;2.20;;;;;;;;;;5013841;28;20808;-45
2023/05/31 12:56:38;;;;;;;6.03;1.93;;;;;;;;;;5020685;28;20458;-44
2023/05/31 12:59:04;;;;;;;4.90;2.40;;;;;;;;;;5013847;28;20572;-44
2023/05/31 13:01:31;;;;;;;2.97;2.10;;;;;;;;;;5014047;28;20852;-44
2023/05/31 13:03:57;;;;;;;2.60;1.90;;;;;;;;;;5013864;28;20435;-47
2023/05/31 13:06:23;;;;;;;2.57;1.80;;;;;;;;;;5014154;28;20498;-46
2023/05/31 13:08:49;;;;;;;1.90;1.80;;;;;;;;;;5013951;28;20231;-44
2023/05/31 13:11:15;;;;;;;2.97;2.03;;;;;;;;;;5014440;28;20927;-44
2023/05/31 13:13:42;;;;;;;2.30;2.07;;;;;;;;;;5013586;28;20438;-45
2023/05/31 13:16:08;;;;;;;4.73;2.27;;;;;;;;;;5013636;28;20686;-45
2023/05/31 13:18:34;;;;;;;5.70;2.17;;;;;;;;;;5012718;28;20426;-45
2023/05/31 13:21:00;;;;;;;2.10;1.83;;;;;;;;;;5013601;28;20407;-45
2023/05/31 13:23:26;;;;;;;3.23;2.00;;;;;;;;;;5013252;28;20204;-45
2023/05/31 13:25:52;;;;;;;4.50;2.50;;;;;;;;;;5013472;28;20847;-44
2023/05/31 13:28:18;;;;;;;2.57;2.37;;;;;;;;;;5013481;28;20415;-44
2023/05/31 13:30:44;;;;;;;2.50;2.27;;;;;;;;;;5013497;28;20251;-46
2023/05/31 13:33:10;;;;;;;3.10;2.20;;;;;;;;;;5013289;28;20514;-44
2023/05/31 13:35:37;;;;;;;3.90;2.30;;;;;;;;;;5013448;28;20223;-44
2023/05/31 13:38:03;;;;;;;4.10;2.27;;;;;;;;;;5013113;28;20546;-46
2023/05/31 13:40:29;;;;;;;4.40;2.30;;;;;;;;;;5013247;28;20473;-45
2023/05/31 13:42:55;;;;;;;3.60;2.63;;;;;;;;;;5013107;28;20950;-44
2023/05/31 13:45:21;;;;;;;3.70;2.53;;;;;;;;;;5013152;28;20194;-46
2023/05/31 13:47:47;;;;;;;3.67;2.43;;;;;;;;;;5011798;28;20438;-44
2023/05/31 13:50:13;;;;;;;5.27;2.80;;;;;;;;;;5012348;28;20441;-45
2023/05/31 13:52:39;;;;;;;4.40;2.53;;;;;;;;;;5012743;28;20422;-45
2023/05/31 13:55:06;;;;;;;2.93;2.03;;;;;;;;;;5014211;28;20423;-44
2023/05/31 13:57:32;;;;;;;4.07;2.50;;;;;;;;;;5018075;28;20172;-45
2023/05/31 13:59:57;;;;;;;3.30;2.53;;;;;;;;;;5012915;28;20522;-45
2023/05/31 14:02:24;;;;;;;5.03;2.70;;;;;;;;;;5012756;28;20184;-45
2023/05/31 14:04:50;;;;;;;6.23;2.57;;;;;;;;;;5012718;28;20611;-45
2023/05/31 14:07:16;;;;;;;4.43;2.50;;;;;;;;;;5012752;28;20407;-44
2023/05/31 14:09:42;;;;;;;4.30;2.60;;;;;;;;;;5012214;28;20168;-45
2023/05/31 14:12:08;;;;;;;3.60;2.80;;;;;;;;;;5012608;28;20415;-46
2023/05/31 14:14:34;;;;;;;5.60;2.30;;;;;;;;;;5012591;28;20435;-45
2023/05/31 14:17:00;;;;;;;3.47;2.53;;;;;;;;;;5011514;28;21040;-46
2023/05/31 14:19:29;;;;;;;2.57;2.10;;;;;;;;;;5011936;28;20705;-45
2023/05/31 14:21:54;;;;;;;4.23;2.60;;;;;;;;;;5012508;28;20984;-46
2023/05/31 14:24:21;;;;;;;6.33;2.37;;;;;;;;;;5012190;28;20430;-45
2023/05/31 14:26:47;;;;;;;2.53;1.93;;;;;;;;;;5012356;28;20179;-47
2023/05/31 14:29:13;;;;;;;4.50;2.37;;;;;;;;;;5012583;28;20414;-45
2023/05/31 14:31:39;;;;;;;5.80;2.63;;;;;;;;;;5012429;28;20182;-45